Time;durP1;ratioP1;P1;durP2;ratioP2;P2;SDS_P1;SDS_P2;PMS_P1;PMS_P2;Temp;Humidity;BMP_temperature;BMP_pressure;BME280_temperature;BME280_humidity;BME280_pressure;Samples;Min_cycle;Max_cycle;Signal;HPM_P1;HPM_P2
2019/09/20 00:00:48;;;;;;;6.2;4.05;;;;;;;4.72;75.93945;96225.45;;;;
2019/09/20 00:01:50;;;;;;;6.2;4.05;;;;;;;4.72;75.93945;96225.45;;;;
2019/09/20 00:02:54;;;;;;;7.100001;3.95;;;;;;;4.76;76.66504;96222.26;;;;
2019/09/20 00:03:55;;;;;;;7.100001;3.95;;;;;;;4.76;76.66504;96222.26;;;;
2019/09/20 00:04:57;;;;;;;7.100001;3.95;;;;;;;4.76;76.66504;96222.26;;;;
2019/09/20 00:05:58;;;;;;;6.5;4.1;;;;;;;4.8;77.30469;96222.31;;;;
2019/09/20 00:06:59;;;;;;;6.5;4.1;;;;;;;4.8;77.30469;96222.31;;;;
2019/09/20 00:08:01;;;;;;;4.3;3.35;;;;;;;4.84;77.71289;96214.26;;;;
2019/09/20 00:09:03;;;;;;;4.3;3.35;;;;;;;4.84;77.71289;96214.26;;;;
2019/09/20 00:10:09;;;;;;;4.3;3.35;;;;;;;4.84;77.71289;96214.26;;;;
2019/09/20 00:11:11;;;;;;;5.45;3.3;;;;;;;4.85;78.08398;96209.23;;;;
2019/09/20 00:12:12;;;;;;;5.45;3.3;;;;;;;4.85;78.08398;96209.23;;;;
2019/09/20 00:13:14;;;;;;;4.6;3;;;;;;;4.86;78.36133;96209.05;;;;
2019/09/20 00:14:15;;;;;;;4.6;3;;;;;;;4.86;78.36133;96209.05;;;;
2019/09/20 00:15:17;;;;;;;4.6;3;;;;;;;4.86;78.36133;96209.05;;;;
2019/09/20 00:16:18;;;;;;;4.750001;3.15;;;;;;;4.86;78.65625;96209.05;;;;
2019/09/20 00:17:20;;;;;;;4.750001;3.15;;;;;;;4.86;78.65625;96209.05;;;;
2019/09/20 00:18:21;;;;;;;4.750001;3.15;;;;;;;4.86;78.65625;96209.05;;;;
2019/09/20 00:19:25;;;;;;;4.750001;3.15;;;;;;;4.86;78.65625;96209.05;;;;
2019/09/20 00:20:27;;;;;;;4.750001;3.15;;;;;;;4.86;78.65625;96209.05;;;;
2019/09/20 00:21:29;;;;;;;4.750001;3.15;;;;;;;4.86;78.65625;96209.05;;;;
2019/09/20 00:22:31;;;;;;;4.750001;3.15;;;;;;;4.86;78.65625;96209.05;;;;
2019/09/20 00:23:32;;;;;;;4.750001;3.15;;;;;;;4.86;78.65625;96209.05;;;;
2019/09/20 00:24:33;;;;;;;4.750001;3.15;;;;;;;4.86;78.65625;96209.05;;;;
2019/09/20 00:25:35;;;;;;;4.750001;3.15;;;;;;;4.86;78.65625;96209.05;;;;
2019/09/20 00:26:36;;;;;;;5.6;2.7;;;;;;;4.45;76.85254;96206.73;;;;
2019/09/20 00:27:37;;;;;;;5.6;2.7;;;;;;;4.45;76.85254;96206.73;;;;
2019/09/20 00:28:38;;;;;;;5.6;2.7;;;;;;;4.45;76.85254;96206.73;;;;
2019/09/20 00:29:40;;;;;;;6.699999;2.8;;;;;;;4.42;77.75195;96204.49;;;;
2019/09/20 00:30:41;;;;;;;6.699999;2.8;;;;;;;4.42;77.75195;96204.49;;;;
2019/09/20 00:32:15;;;;;;;6.699999;2.8;;;;;;;4.42;77.75195;96204.49;;;;
2019/09/20 00:33:16;;;;;;;6.699999;2.8;;;;;;;4.42;77.75195;96204.49;;;;
2019/09/20 00:34:17;;;;;;;6.699999;2.8;;;;;;;4.42;77.75195;96204.49;;;;
2019/09/20 00:35:18;;;;;;;6.699999;2.8;;;;;;;4.42;77.75195;96204.49;;;;
2019/09/20 00:36:20;;;;;;;6.699999;2.8;;;;;;;4.42;77.75195;96204.49;;;;
2019/09/20 00:37:22;;;;;;;6.699999;2.8;;;;;;;4.42;77.75195;96204.49;;;;
2019/09/20 00:38:24;;;;;;;6.699999;2.8;;;;;;;4.42;77.75195;96204.49;;;;
2019/09/20 00:39:25;;;;;;;6.699999;2.8;;;;;;;4.42;77.75195;96204.49;;;;
2019/09/20 00:40:29;;;;;;;5.6;2.85;;;;;;;4.14;76.54492;96195.6;;;;
2019/09/20 00:41:37;;;;;;;5.6;2.85;;;;;;;4.14;76.54492;96195.6;;;;
2019/09/20 00:42:39;;;;;;;6.5;2.9;;;;;;;4.14;77.56641;96195.67;;;;
2019/09/20 00:43:40;;;;;;;6.5;2.9;;;;;;;4.14;77.56641;96195.67;;;;
2019/09/20 00:44:42;;;;;;;6.5;2.9;;;;;;;4.14;77.56641;96195.67;;;;
2019/09/20 00:45:43;;;;;;;6.5;2.9;;;;;;;4.14;77.56641;96195.67;;;;
2019/09/20 00:46:44;;;;;;;6.5;2.9;;;;;;;4.14;77.56641;96195.67;;;;
2019/09/20 00:47:46;;;;;;;6.5;2.9;;;;;;;4.14;77.56641;96195.67;;;;
2019/09/20 00:48:47;;;;;;;6.5;2.9;;;;;;;4.14;77.56641;96195.67;;;;
2019/09/20 00:49:49;;;;;;;6.5;2.9;;;;;;;4.14;77.56641;96195.67;;;;
2019/09/20 00:50:50;;;;;;;6.5;2.9;;;;;;;4.14;77.56641;96195.67;;;;
2019/09/20 00:51:51;;;;;;;6.5;2.9;;;;;;;4.14;77.56641;96195.67;;;;
2019/09/20 00:52:52;;;;;;;6.5;2.9;;;;;;;4.14;77.56641;96195.67;;;;
2019/09/20 00:53:53;;;;;;;5.05;2.7;;;;;;;3.94;76.45703;96184.58;;;;
2019/09/20 00:54:55;;;;;;;5.05;2.7;;;;;;;3.94;76.45703;96184.58;;;;
2019/09/20 00:55:56;;;;;;;4.3;2.85;;;;;;;3.95;77.44629;96184.09;;;;
2019/09/20 00:56:59;;;;;;;4.3;2.85;;;;;;;3.95;77.44629;96184.09;;;;
2019/09/20 00:58:00;;;;;;;4.3;2.85;;;;;;;3.95;77.44629;96184.09;;;;
2019/09/20 00:59:02;;;;;;;4.3;2.85;;;;;;;3.95;77.44629;96184.09;;;;
2019/09/20 01:00:03;;;;;;;4.3;2.85;;;;;;;3.95;77.44629;96184.09;;;;
2019/09/20 01:01:06;;;;;;;4.3;2.85;;;;;;;3.95;77.44629;96184.09;;;;
2019/09/20 01:02:33;;;;;;;4.3;2.85;;;;;;;3.95;77.44629;96184.09;;;;
2019/09/20 01:03:35;;;;;;;4.3;2.85;;;;;;;3.95;77.44629;96184.09;;;;
2019/09/20 01:04:36;;;;;;;4.3;2.85;;;;;;;3.95;77.44629;96184.09;;;;
2019/09/20 01:05:38;;;;;;;4.3;2.85;;;;;;;3.95;77.44629;96184.09;;;;
2019/09/20 01:06:40;;;;;;;3.85;2.35;;;;;;;3.78;76.38574;96173.05;;;;
2019/09/20 01:07:41;;;;;;;3.85;2.35;;;;;;;3.78;76.38574;96173.05;;;;
2019/09/20 01:08:42;;;;;;;3.85;2.35;;;;;;;3.78;76.38574;96173.05;;;;
2019/09/20 01:09:43;;;;;;;6.700001;2.9;;;;;;;3.79;77.3877;96174.73;;;;
2019/09/20 01:11:33;;;;;;;6.700001;2.9;;;;;;;3.79;77.3877;96174.73;;;;
2019/09/20 01:12:34;;;;;;;6.700001;2.9;;;;;;;3.79;77.3877;96174.73;;;;
2019/09/20 01:13:36;;;;;;;6.700001;2.9;;;;;;;3.79;77.3877;96174.73;;;;
2019/09/20 01:14:37;;;;;;;6.700001;2.9;;;;;;;3.79;77.3877;96174.73;;;;
2019/09/20 01:15:40;;;;;;;6.700001;2.9;;;;;;;3.79;77.3877;96174.73;;;;
2019/09/20 01:16:45;;;;;;;6.700001;2.9;;;;;;;3.79;77.3877;96174.73;;;;
2019/09/20 01:17:46;;;;;;;6.700001;2.9;;;;;;;3.79;77.3877;96174.73;;;;
2019/09/20 01:18:48;;;;;;;6.700001;2.9;;;;;;;3.79;77.3877;96174.73;;;;
2019/09/20 01:19:49;;;;;;;4.55;2.6;;;;;;;3.63;76.2959;96152.09;;;;
2019/09/20 01:20:50;;;;;;;4.55;2.6;;;;;;;3.63;76.2959;96152.09;;;;
2019/09/20 01:21:52;;;;;;;4.55;2.6;;;;;;;3.63;76.2959;96152.09;;;;
2019/09/20 01:22:54;;;;;;;5.799999;2.75;;;;;;;3.64;77.29688;96158.17;;;;
2019/09/20 01:23:55;;;;;;;5.799999;2.75;;;;;;;3.64;77.29688;96158.17;;;;
2019/09/20 01:24:57;;;;;;;5.15;2.8;;;;;;;3.72;77.98438;96155.55;;;;
2019/09/20 01:25:58;;;;;;;5.15;2.8;;;;;;;3.72;77.98438;96155.55;;;;
2019/09/20 01:26:59;;;;;;;5.15;2.8;;;;;;;3.72;77.98438;96155.55;;;;
2019/09/20 01:28:01;;;;;;;5.65;2.5;;;;;;;3.76;78.57129;96160.36;;;;
2019/09/20 01:29:02;;;;;;;5.65;2.5;;;;;;;3.76;78.57129;96160.36;;;;
2019/09/20 01:30:04;;;;;;;5.65;2.5;;;;;;;3.76;78.57129;96160.36;;;;
2019/09/20 01:31:07;;;;;;;5.65;2.5;;;;;;;3.76;78.57129;96160.36;;;;
2019/09/20 01:32:08;;;;;;;5.65;2.5;;;;;;;3.76;78.57129;96160.36;;;;
2019/09/20 01:33:09;;;;;;;5.65;2.5;;;;;;;3.76;78.57129;96160.36;;;;
2019/09/20 01:34:11;;;;;;;5.65;2.5;;;;;;;3.76;78.57129;96160.36;;;;
2019/09/20 01:35:12;;;;;;;5.65;2.5;;;;;;;3.76;78.57129;96160.36;;;;
2019/09/20 01:36:14;;;;;;;5.65;2.5;;;;;;;3.76;78.57129;96160.36;;;;
2019/09/20 01:37:15;;;;;;;5.65;2.5;;;;;;;3.76;78.57129;96160.36;;;;
2019/09/20 01:38:16;;;;;;;6.35;2.8;;;;;;;3.52;77.11719;96157.37;;;;
2019/09/20 01:39:18;;;;;;;6.35;2.8;;;;;;;3.52;77.11719;96157.37;;;;
2019/09/20 01:40:19;;;;;;;6.35;2.8;;;;;;;3.52;77.11719;96157.37;;;;
2019/09/20 01:41:22;;;;;;;6.6;3.1;;;;;;;3.51;78.08203;96151.29;;;;
2019/09/20 01:42:23;;;;;;;6.6;3.1;;;;;;;3.51;78.08203;96151.29;;;;
2019/09/20 01:43:24;;;;;;;6.6;3.1;;;;;;;3.51;78.08203;96151.29;;;;
2019/09/20 01:44:26;;;;;;;6.6;3.1;;;;;;;3.51;78.08203;96151.29;;;;
2019/09/20 01:45:27;;;;;;;6.6;3.1;;;;;;;3.51;78.08203;96151.29;;;;
2019/09/20 01:46:28;;;;;;;6.6;3.1;;;;;;;3.51;78.08203;96151.29;;;;
2019/09/20 01:47:30;;;;;;;6.6;3.1;;;;;;;3.51;78.08203;96151.29;;;;
2019/09/20 01:48:31;;;;;;;6.6;3.1;;;;;;;3.51;78.08203;96151.29;;;;
2019/09/20 01:49:32;;;;;;;6.6;3.1;;;;;;;3.51;78.08203;96151.29;;;;
2019/09/20 01:50:34;;;;;;;6.6;3.1;;;;;;;3.51;78.08203;96151.29;;;;
2019/09/20 01:51:36;;;;;;;3.1;2.3;;;;;;;3.31;77.1748;96152.57;;;;
2019/09/20 01:52:37;;;;;;;3.1;2.3;;;;;;;3.31;77.1748;96152.57;;;;
2019/09/20 01:53:38;;;;;;;3.1;2.3;;;;;;;3.31;77.1748;96152.57;;;;
2019/09/20 01:54:40;;;;;;;4.6;2.65;;;;;;;3.32;78.12207;96147.58;;;;
2019/09/20 01:55:41;;;;;;;4.6;2.65;;;;;;;3.32;78.12207;96147.58;;;;
2019/09/20 01:56:42;;;;;;;4.6;2.65;;;;;;;3.32;78.12207;96147.58;;;;
2019/09/20 01:57:43;;;;;;;4.6;2.65;;;;;;;3.32;78.12207;96147.58;;;;
2019/09/20 01:58:45;;;;;;;4.6;2.65;;;;;;;3.32;78.12207;96147.58;;;;
2019/09/20 01:59:46;;;;;;;4.6;2.65;;;;;;;3.32;78.12207;96147.58;;;;
2019/09/20 02:00:48;;;;;;;4.6;2.65;;;;;;;3.32;78.12207;96147.58;;;;
2019/09/20 02:01:49;;;;;;;4.6;2.65;;;;;;;3.32;78.12207;96147.58;;;;
2019/09/20 02:02:51;;;;;;;4.6;2.65;;;;;;;3.32;78.12207;96147.58;;;;
2019/09/20 02:03:52;;;;;;;4.6;2.65;;;;;;;3.32;78.12207;96147.58;;;;
2019/09/20 02:04:54;;;;;;;3.7;2.35;;;;;;;3.17;77.19141;96143.93;;;;
2019/09/20 02:05:55;;;;;;;3.7;2.35;;;;;;;3.17;77.19141;96143.93;;;;
2019/09/20 02:06:57;;;;;;;3.6;2.6;;;;;;;3.19;78.12988;96142.85;;;;
2019/09/20 02:08:36;;;;;;;3.6;2.6;;;;;;;3.19;78.12988;96142.85;;;;
2019/09/20 02:09:38;;;;;;;3.6;2.6;;;;;;;3.19;78.12988;96142.85;;;;
2019/09/20 02:10:39;;;;;;;3.6;2.6;;;;;;;3.19;78.12988;96142.85;;;;
2019/09/20 02:11:41;;;;;;;3.6;2.6;;;;;;;3.19;78.12988;96142.85;;;;
2019/09/20 02:12:42;;;;;;;3.6;2.6;;;;;;;3.19;78.12988;96142.85;;;;
2019/09/20 02:13:43;;;;;;;3.6;2.6;;;;;;;3.19;78.12988;96142.85;;;;
2019/09/20 02:14:46;;;;;;;3.6;2.6;;;;;;;3.19;78.12988;96142.85;;;;
2019/09/20 02:15:47;;;;;;;3.6;2.6;;;;;;;3.19;78.12988;96142.85;;;;
2019/09/20 02:16:48;;;;;;;3.6;2.6;;;;;;;3.19;78.12988;96142.85;;;;
2019/09/20 02:17:50;;;;;;;4.35;2.45;;;;;;;3.06;77.18164;96136.8;;;;
2019/09/20 02:18:51;;;;;;;4.35;2.45;;;;;;;3.06;77.18164;96136.8;;;;
2019/09/20 02:19:52;;;;;;;4.35;2.45;;;;;;;3.06;77.18164;96136.8;;;;
2019/09/20 02:20:53;;;;;;;4.65;2.65;;;;;;;3.07;78.13086;96137.05;;;;
2019/09/20 02:21:56;;;;;;;4.65;2.65;;;;;;;3.07;78.13086;96137.05;;;;
2019/09/20 02:22:58;;;;;;;4.65;2.65;;;;;;;3.07;78.13086;96137.05;;;;
2019/09/20 02:23:59;;;;;;;4.65;2.65;;;;;;;3.07;78.13086;96137.05;;;;
2019/09/20 02:25:00;;;;;;;4.65;2.65;;;;;;;3.07;78.13086;96137.05;;;;
2019/09/20 02:26:02;;;;;;;4.65;2.65;;;;;;;3.07;78.13086;96137.05;;;;
2019/09/20 02:27:04;;;;;;;4.65;2.65;;;;;;;3.07;78.13086;96137.05;;;;
2019/09/20 02:28:05;;;;;;;4.65;2.65;;;;;;;3.07;78.13086;96137.05;;;;
2019/09/20 02:29:06;;;;;;;4.65;2.65;;;;;;;3.07;78.13086;96137.05;;;;
2019/09/20 02:30:08;;;;;;;4.65;2.65;;;;;;;3.07;78.13086;96137.05;;;;
2019/09/20 02:31:09;;;;;;;3.75;2.6;;;;;;;2.95;77.25781;96133.03;;;;
2019/09/20 02:32:15;;;;;;;3.75;2.6;;;;;;;2.95;77.25781;96133.03;;;;
2019/09/20 02:33:16;;;;;;;3.75;2.6;;;;;;;2.95;77.25781;96133.03;;;;
2019/09/20 02:34:18;;;;;;;4.900001;2.65;;;;;;;2.97;78.21875;96131.04;;;;
2019/09/20 02:35:19;;;;;;;4.900001;2.65;;;;;;;2.97;78.21875;96131.04;;;;
2019/09/20 02:36:20;;;;;;;4.900001;2.65;;;;;;;2.97;78.21875;96131.04;;;;
2019/09/20 02:37:21;;;;;;;4.900001;2.65;;;;;;;2.97;78.21875;96131.04;;;;
2019/09/20 02:38:23;;;;;;;4.900001;2.65;;;;;;;2.97;78.21875;96131.04;;;;
2019/09/20 02:39:24;;;;;;;4.900001;2.65;;;;;;;2.97;78.21875;96131.04;;;;
2019/09/20 02:40:26;;;;;;;4.900001;2.65;;;;;;;2.97;78.21875;96131.04;;;;
2019/09/20 02:41:27;;;;;;;4.900001;2.65;;;;;;;2.97;78.21875;96131.04;;;;
2019/09/20 02:42:29;;;;;;;4.900001;2.65;;;;;;;2.97;78.21875;96131.04;;;;
2019/09/20 02:43:30;;;;;;;4.900001;2.65;;;;;;;2.97;78.21875;96131.04;;;;
2019/09/20 02:44:31;;;;;;;5.4;2.85;;;;;;;2.86;77.24121;96131.48;;;;
2019/09/20 02:45:33;;;;;;;5.4;2.85;;;;;;;2.86;77.24121;96131.48;;;;
2019/09/20 02:46:35;;;;;;;4.65;2.65;;;;;;;2.88;78.23145;96129.49;;;;
2019/09/20 02:47:37;;;;;;;4.65;2.65;;;;;;;2.88;78.23145;96129.49;;;;
2019/09/20 02:48:38;;;;;;;4.65;2.65;;;;;;;2.88;78.23145;96129.49;;;;
2019/09/20 02:49:39;;;;;;;4.65;2.65;;;;;;;2.88;78.23145;96129.49;;;;
2019/09/20 02:50:40;;;;;;;4.65;2.65;;;;;;;2.88;78.23145;96129.49;;;;
2019/09/20 02:51:42;;;;;;;4.65;2.65;;;;;;;2.88;78.23145;96129.49;;;;
2019/09/20 02:52:43;;;;;;;4.65;2.65;;;;;;;2.88;78.23145;96129.49;;;;
2019/09/20 02:53:44;;;;;;;4.65;2.65;;;;;;;2.88;78.23145;96129.49;;;;
2019/09/20 02:54:46;;;;;;;4.65;2.65;;;;;;;2.88;78.23145;96129.49;;;;
2019/09/20 02:55:51;;;;;;;4.65;2.65;;;;;;;2.88;78.23145;96129.49;;;;
2019/09/20 02:57:10;;;;;;;5;3;;;;;;;2.74;77.39746;96140.8;;;;
2019/09/20 02:58:12;;;;;;;5;3;;;;;;;2.74;77.39746;96140.8;;;;
2019/09/20 02:59:13;;;;;;;5;3;;;;;;;2.74;77.39746;96140.8;;;;
2019/09/20 03:00:14;;;;;;;6.550001;2.9;;;;;;;2.76;78.4082;96141.89;;;;
2019/09/20 03:01:16;;;;;;;6.550001;2.9;;;;;;;2.76;78.4082;96141.89;;;;
2019/09/20 03:02:20;;;;;;;6.550001;2.9;;;;;;;2.76;78.4082;96141.89;;;;
2019/09/20 03:03:21;;;;;;;6.550001;2.9;;;;;;;2.76;78.4082;96141.89;;;;
2019/09/20 03:04:22;;;;;;;6.550001;2.9;;;;;;;2.76;78.4082;96141.89;;;;
2019/09/20 03:05:24;;;;;;;6.550001;2.9;;;;;;;2.76;78.4082;96141.89;;;;
2019/09/20 03:06:25;;;;;;;6.550001;2.9;;;;;;;2.76;78.4082;96141.89;;;;
2019/09/20 03:07:27;;;;;;;6.550001;2.9;;;;;;;2.76;78.4082;96141.89;;;;
2019/09/20 03:08:28;;;;;;;6.550001;2.9;;;;;;;2.76;78.4082;96141.89;;;;
2019/09/20 03:09:29;;;;;;;6.550001;2.9;;;;;;;2.76;78.4082;96141.89;;;;
2019/09/20 03:10:30;;;;;;;5.95;2.7;;;;;;;2.64;77.56738;96131.23;;;;
2019/09/20 03:11:32;;;;;;;5.95;2.7;;;;;;;2.64;77.56738;96131.23;;;;
2019/09/20 03:12:33;;;;;;;5.95;2.7;;;;;;;2.64;77.56738;96131.23;;;;
2019/09/20 03:13:34;;;;;;;4.5;2.65;;;;;;;2.66;78.56934;96128.33;;;;
2019/09/20 03:14:36;;;;;;;4.5;2.65;;;;;;;2.66;78.56934;96128.33;;;;
2019/09/20 03:15:37;;;;;;;4.5;2.65;;;;;;;2.66;78.56934;96128.33;;;;
2019/09/20 03:16:39;;;;;;;4.5;2.65;;;;;;;2.66;78.56934;96128.33;;;;
2019/09/20 03:17:40;;;;;;;4.5;2.65;;;;;;;2.66;78.56934;96128.33;;;;
2019/09/20 03:18:41;;;;;;;4.5;2.65;;;;;;;2.66;78.56934;96128.33;;;;
2019/09/20 03:19:42;;;;;;;4.5;2.65;;;;;;;2.66;78.56934;96128.33;;;;
2019/09/20 03:20:43;;;;;;;4.5;2.65;;;;;;;2.66;78.56934;96128.33;;;;
2019/09/20 03:21:45;;;;;;;4.5;2.65;;;;;;;2.66;78.56934;96128.33;;;;
2019/09/20 03:22:46;;;;;;;4.5;2.65;;;;;;;2.66;78.56934;96128.33;;;;
2019/09/20 03:23:47;;;;;;;5;2.5;;;;;;;2.55;77.73047;96130.41;;;;
2019/09/20 03:24:48;;;;;;;5;2.5;;;;;;;2.55;77.73047;96130.41;;;;
2019/09/20 03:25:50;;;;;;;5;2.5;;;;;;;2.55;77.73047;96130.41;;;;
2019/09/20 03:26:53;;;;;;;4.25;2.750001;;;;;;;2.58;78.67969;96129.64;;;;
2019/09/20 03:27:54;;;;;;;4.25;2.750001;;;;;;;2.58;78.67969;96129.64;;;;
2019/09/20 03:28:56;;;;;;;4.25;2.750001;;;;;;;2.58;78.67969;96129.64;;;;
2019/09/20 03:29:57;;;;;;;4.25;2.750001;;;;;;;2.58;78.67969;96129.64;;;;
2019/09/20 03:30:58;;;;;;;4.25;2.750001;;;;;;;2.58;78.67969;96129.64;;;;
2019/09/20 03:32:11;;;;;;;4.25;2.750001;;;;;;;2.58;78.67969;96129.64;;;;
2019/09/20 03:33:12;;;;;;;4.25;2.750001;;;;;;;2.58;78.67969;96129.64;;;;
2019/09/20 03:34:13;;;;;;;4.25;2.750001;;;;;;;2.58;78.67969;96129.64;;;;
2019/09/20 03:35:15;;;;;;;4.25;2.750001;;;;;;;2.58;78.67969;96129.64;;;;
2019/09/20 03:36:16;;;;;;;4.25;2.750001;;;;;;;2.58;78.67969;96129.64;;;;
2019/09/20 03:37:17;;;;;;;7.2;2.9;;;;;;;2.48;77.87402;96123.24;;;;
2019/09/20 03:38:18;;;;;;;7.2;2.9;;;;;;;2.48;77.87402;96123.24;;;;
2019/09/20 03:39:20;;;;;;;7.2;2.9;;;;;;;2.48;77.87402;96123.24;;;;
2019/09/20 03:40:21;;;;;;;5.300001;2.8;;;;;;;2.51;78.85449;96122.89;;;;
2019/09/20 03:41:22;;;;;;;5.300001;2.8;;;;;;;2.51;78.85449;96122.89;;;;
2019/09/20 03:42:24;;;;;;;5.300001;2.8;;;;;;;2.51;78.85449;96122.89;;;;
2019/09/20 03:43:25;;;;;;;5.300001;2.8;;;;;;;2.51;78.85449;96122.89;;;;
2019/09/20 03:44:26;;;;;;;5.300001;2.8;;;;;;;2.51;78.85449;96122.89;;;;
2019/09/20 03:45:28;;;;;;;5.300001;2.8;;;;;;;2.51;78.85449;96122.89;;;;
2019/09/20 03:46:29;;;;;;;5.300001;2.8;;;;;;;2.51;78.85449;96122.89;;;;
2019/09/20 03:47:30;;;;;;;5.300001;2.8;;;;;;;2.51;78.85449;96122.89;;;;
2019/09/20 03:48:32;;;;;;;5.300001;2.8;;;;;;;2.51;78.85449;96122.89;;;;
2019/09/20 03:49:33;;;;;;;5.300001;2.8;;;;;;;2.51;78.85449;96122.89;;;;
2019/09/20 03:50:34;;;;;;;4.2;2.7;;;;;;;2.38;78.00586;96119.39;;;;
2019/09/20 03:51:36;;;;;;;4.2;2.7;;;;;;;2.38;78.00586;96119.39;;;;
2019/09/20 03:52:37;;;;;;;4.2;2.7;;;;;;;2.38;78.00586;96119.39;;;;
2019/09/20 03:53:38;;;;;;;4.05;2.95;;;;;;;2.4;79.02637;96121.81;;;;
2019/09/20 03:54:40;;;;;;;4.05;2.95;;;;;;;2.4;79.02637;96121.81;;;;
2019/09/20 03:55:41;;;;;;;4.05;2.95;;;;;;;2.4;79.02637;96121.81;;;;
2019/09/20 03:56:43;;;;;;;4.05;2.95;;;;;;;2.4;79.02637;96121.81;;;;
2019/09/20 03:57:44;;;;;;;4.05;2.95;;;;;;;2.4;79.02637;96121.81;;;;
2019/09/20 03:58:45;;;;;;;4.05;2.95;;;;;;;2.4;79.02637;96121.81;;;;
2019/09/20 03:59:46;;;;;;;4.05;2.95;;;;;;;2.4;79.02637;96121.81;;;;
2019/09/20 04:00:47;;;;;;;4.05;2.95;;;;;;;2.4;79.02637;96121.81;;;;
2019/09/20 04:01:50;;;;;;;4.05;2.95;;;;;;;2.4;79.02637;96121.81;;;;
2019/09/20 04:02:51;;;;;;;4.05;2.95;;;;;;;2.4;79.02637;96121.81;;;;
2019/09/20 04:03:52;;;;;;;5.05;2.8;;;;;;;2.31;78.24316;96120.14;;;;
2019/09/20 04:04:53;;;;;;;5.05;2.8;;;;;;;2.31;78.24316;96120.14;;;;
2019/09/20 04:05:54;;;;;;;5.05;2.8;;;;;;;2.31;78.24316;96120.14;;;;
2019/09/20 04:06:58;;;;;;;5.05;2.8;;;;;;;2.31;78.24316;96120.14;;;;
2019/09/20 04:07:59;;;;;;;5.05;2.8;;;;;;;2.31;78.24316;96120.14;;;;
2019/09/20 04:09:00;;;;;;;5.05;2.8;;;;;;;2.31;78.24316;96120.14;;;;
2019/09/20 04:10:04;;;;;;;5.05;2.8;;;;;;;2.31;78.24316;96120.14;;;;
2019/09/20 04:11:05;;;;;;;5.05;2.8;;;;;;;2.31;78.24316;96120.14;;;;
2019/09/20 04:12:07;;;;;;;5.05;2.8;;;;;;;2.31;78.24316;96120.14;;;;
2019/09/20 04:13:08;;;;;;;5.05;2.8;;;;;;;2.31;78.24316;96120.14;;;;
2019/09/20 04:14:09;;;;;;;4.75;2.45;;;;;;;2.27;77.87988;96113.95;;;;
2019/09/20 04:15:10;;;;;;;4.75;2.45;;;;;;;2.27;77.87988;96113.95;;;;
2019/09/20 04:16:12;;;;;;;4.75;2.45;;;;;;;2.27;77.87988;96113.95;;;;
2019/09/20 04:17:13;;;;;;;4.75;2.45;;;;;;;2.27;77.87988;96113.95;;;;
2019/09/20 04:18:14;;;;;;;4.75;2.45;;;;;;;2.27;77.87988;96113.95;;;;
2019/09/20 04:19:16;;;;;;;4.75;2.45;;;;;;;2.27;77.87988;96113.95;;;;
2019/09/20 04:20:17;;;;;;;4.75;2.45;;;;;;;2.27;77.87988;96113.95;;;;
2019/09/20 04:21:18;;;;;;;4.75;2.45;;;;;;;2.27;77.87988;96113.95;;;;
2019/09/20 04:22:20;;;;;;;4.75;2.45;;;;;;;2.27;77.87988;96113.95;;;;
2019/09/20 04:23:21;;;;;;;4.75;2.45;;;;;;;2.27;77.87988;96113.95;;;;
2019/09/20 04:24:22;;;;;;;4.75;2.45;;;;;;;2.27;77.87988;96113.95;;;;
2019/09/20 04:25:23;;;;;;;2.85;2.4;;;;;;;2.16;77.54492;96111.22;;;;
2019/09/20 04:26:25;;;;;;;2.85;2.4;;;;;;;2.16;77.54492;96111.22;;;;
2019/09/20 04:27:26;;;;;;;5.35;3.2;;;;;;;2.19;78.59668;96113.55;;;;
2019/09/20 04:28:27;;;;;;;5.35;3.2;;;;;;;2.19;78.59668;96113.55;;;;
2019/09/20 04:29:28;;;;;;;5.35;3.2;;;;;;;2.19;78.59668;96113.55;;;;
2019/09/20 04:30:29;;;;;;;5.35;3.2;;;;;;;2.19;78.59668;96113.55;;;;
2019/09/20 04:31:32;;;;;;;5.35;3.2;;;;;;;2.19;78.59668;96113.55;;;;
2019/09/20 04:32:33;;;;;;;5.35;3.2;;;;;;;2.19;78.59668;96113.55;;;;
2019/09/20 04:33:34;;;;;;;5.35;3.2;;;;;;;2.19;78.59668;96113.55;;;;
2019/09/20 04:34:36;;;;;;;5.35;3.2;;;;;;;2.19;78.59668;96113.55;;;;
2019/09/20 04:35:37;;;;;;;5.35;3.2;;;;;;;2.19;78.59668;96113.55;;;;
2019/09/20 04:36:38;;;;;;;5.35;3.2;;;;;;;2.19;78.59668;96113.55;;;;
2019/09/20 04:37:40;;;;;;;5.35;3.2;;;;;;;2.19;78.59668;96113.55;;;;
2019/09/20 04:38:41;;;;;;;6.349999;3.2;;;;;;;2.12;77.95605;96120.04;;;;
2019/09/20 04:39:42;;;;;;;6.349999;3.2;;;;;;;2.12;77.95605;96120.04;;;;
2019/09/20 04:40:43;;;;;;;6.349999;3.2;;;;;;;2.12;77.95605;96120.04;;;;
2019/09/20 04:41:52;;;;;;;6.349999;3.2;;;;;;;2.12;77.95605;96120.04;;;;
2019/09/20 04:42:53;;;;;;;6.349999;3.2;;;;;;;2.12;77.95605;96120.04;;;;
2019/09/20 04:43:55;;;;;;;6.349999;3.2;;;;;;;2.12;77.95605;96120.04;;;;
2019/09/20 04:44:56;;;;;;;6.349999;3.2;;;;;;;2.12;77.95605;96120.04;;;;
2019/09/20 04:45:57;;;;;;;6.349999;3.2;;;;;;;2.12;77.95605;96120.04;;;;
2019/09/20 04:46:58;;;;;;;6.349999;3.2;;;;;;;2.12;77.95605;96120.04;;;;
2019/09/20 04:47:59;;;;;;;6.349999;3.2;;;;;;;2.12;77.95605;96120.04;;;;
2019/09/20 04:49:01;;;;;;;5.75;2.8;;;;;;;2.1;77.67969;96130.92;;;;
2019/09/20 04:50:02;;;;;;;5.75;2.8;;;;;;;2.1;77.67969;96130.92;;;;
2019/09/20 04:51:05;;;;;;;5.75;2.8;;;;;;;2.1;77.67969;96130.92;;;;
2019/09/20 04:52:07;;;;;;;5.75;2.8;;;;;;;2.1;77.67969;96130.92;;;;
2019/09/20 04:53:08;;;;;;;5.75;2.8;;;;;;;2.1;77.67969;96130.92;;;;
2019/09/20 04:54:09;;;;;;;5.75;2.8;;;;;;;2.1;77.67969;96130.92;;;;
2019/09/20 04:55:10;;;;;;;5.75;2.8;;;;;;;2.1;77.67969;96130.92;;;;
2019/09/20 04:56:13;;;;;;;5.75;2.8;;;;;;;2.1;77.67969;96130.92;;;;
2019/09/20 04:57:14;;;;;;;5.75;2.8;;;;;;;2.1;77.67969;96130.92;;;;
2019/09/20 04:58:15;;;;;;;5.75;2.8;;;;;;;2.1;77.67969;96130.92;;;;
2019/09/20 04:59:16;;;;;;;5.3;3.05;;;;;;;2.01;77.48633;96140.31;;;;
2019/09/20 05:00:18;;;;;;;5.3;3.05;;;;;;;2.01;77.48633;96140.31;;;;
2019/09/20 05:01:41;;;;;;;5.3;3.05;;;;;;;2.01;77.48633;96140.31;;;;
2019/09/20 05:02:42;;;;;;;5.3;3.05;;;;;;;2.01;77.48633;96140.31;;;;
2019/09/20 05:03:43;;;;;;;5.3;3.05;;;;;;;2.01;77.48633;96140.31;;;;
2019/09/20 05:04:45;;;;;;;5.3;3.05;;;;;;;2.01;77.48633;96140.31;;;;
2019/09/20 05:05:46;;;;;;;5.3;3.05;;;;;;;2.01;77.48633;96140.31;;;;
2019/09/20 05:06:47;;;;;;;5.3;3.05;;;;;;;2.01;77.48633;96140.31;;;;
2019/09/20 05:07:48;;;;;;;5.3;3.05;;;;;;;2.01;77.48633;96140.31;;;;
2019/09/20 05:08:50;;;;;;;5.3;3.05;;;;;;;2.01;77.48633;96140.31;;;;
2019/09/20 05:09:51;;;;;;;7;3.2;;;;;;;2.06;77.33984;96157.05;;;;
2019/09/20 05:10:52;;;;;;;7;3.2;;;;;;;2.06;77.33984;96157.05;;;;
2019/09/20 05:11:53;;;;;;;7;3.2;;;;;;;2.06;77.33984;96157.05;;;;
2019/09/20 05:12:54;;;;;;;7;3.2;;;;;;;2.06;77.33984;96157.05;;;;
2019/09/20 05:13:56;;;;;;;7;3.2;;;;;;;2.06;77.33984;96157.05;;;;
2019/09/20 05:14:57;;;;;;;7;3.2;;;;;;;2.06;77.33984;96157.05;;;;
2019/09/20 05:15:58;;;;;;;7;3.2;;;;;;;2.06;77.33984;96157.05;;;;
2019/09/20 05:16:59;;;;;;;7;3.2;;;;;;;2.06;77.33984;96157.05;;;;
2019/09/20 05:18:00;;;;;;;7;3.2;;;;;;;2.06;77.33984;96157.05;;;;
2019/09/20 05:19:02;;;;;;;7;3.2;;;;;;;2.06;77.33984;96157.05;;;;
2019/09/20 05:20:03;;;;;;;7;3.2;;;;;;;2.06;77.33984;96157.05;;;;
2019/09/20 05:21:05;;;;;;;7.05;3.750001;;;;;;;2.09;77.13477;96166.46;;;;
2019/09/20 05:22:06;;;;;;;7.05;3.750001;;;;;;;2.09;77.13477;96166.46;;;;
2019/09/20 05:23:07;;;;;;;7.05;3.750001;;;;;;;2.09;77.13477;96166.46;;;;
2019/09/20 05:24:09;;;;;;;7.05;3.750001;;;;;;;2.09;77.13477;96166.46;;;;
2019/09/20 05:25:10;;;;;;;7.05;3.750001;;;;;;;2.09;77.13477;96166.46;;;;
2019/09/20 05:26:12;;;;;;;7.05;3.750001;;;;;;;2.09;77.13477;96166.46;;;;
2019/09/20 05:27:13;;;;;;;7.05;3.750001;;;;;;;2.09;77.13477;96166.46;;;;
2019/09/20 05:28:14;;;;;;;7.05;3.750001;;;;;;;2.09;77.13477;96166.46;;;;
2019/09/20 05:29:16;;;;;;;7.05;3.750001;;;;;;;2.09;77.13477;96166.46;;;;
2019/09/20 05:30:17;;;;;;;7.05;3.750001;;;;;;;2.09;77.13477;96166.46;;;;
2019/09/20 05:31:18;;;;;;;9.75;3.65;;;;;;;2.31;76.98535;96177.91;;;;
2019/09/20 05:32:20;;;;;;;9.75;3.65;;;;;;;2.31;76.98535;96177.91;;;;
2019/09/20 05:33:21;;;;;;;9.75;3.65;;;;;;;2.31;76.98535;96177.91;;;;
2019/09/20 05:34:22;;;;;;;9.75;3.65;;;;;;;2.31;76.98535;96177.91;;;;
2019/09/20 05:35:23;;;;;;;9.75;3.65;;;;;;;2.31;76.98535;96177.91;;;;
2019/09/20 05:36:26;;;;;;;9.75;3.65;;;;;;;2.31;76.98535;96177.91;;;;
2019/09/20 05:37:27;;;;;;;9.75;3.65;;;;;;;2.31;76.98535;96177.91;;;;
2019/09/20 05:38:28;;;;;;;9.75;3.65;;;;;;;2.31;76.98535;96177.91;;;;
2019/09/20 05:39:30;;;;;;;9.75;3.65;;;;;;;2.31;76.98535;96177.91;;;;
2019/09/20 05:40:31;;;;;;;9.75;3.65;;;;;;;2.31;76.98535;96177.91;;;;
2019/09/20 05:41:33;;;;;;;6.199999;3.6;;;;;;;2.55;76.69141;96177.55;;;;
2019/09/20 05:42:34;;;;;;;6.199999;3.6;;;;;;;2.55;76.69141;96177.55;;;;
2019/09/20 05:43:35;;;;;;;6.199999;3.6;;;;;;;2.55;76.69141;96177.55;;;;
2019/09/20 05:44:37;;;;;;;6.199999;3.6;;;;;;;2.55;76.69141;96177.55;;;;
2019/09/20 05:45:38;;;;;;;6.199999;3.6;;;;;;;2.55;76.69141;96177.55;;;;
2019/09/20 05:46:41;;;;;;;6.199999;3.6;;;;;;;2.55;76.69141;96177.55;;;;
2019/09/20 05:48:04;;;;;;;6.199999;3.6;;;;;;;2.55;76.69141;96177.55;;;;
2019/09/20 05:49:06;;;;;;;6.199999;3.6;;;;;;;2.55;76.69141;96177.55;;;;
2019/09/20 05:50:07;;;;;;;6.199999;3.6;;;;;;;2.55;76.69141;96177.55;;;;
2019/09/20 05:51:09;;;;;;;6.199999;3.6;;;;;;;2.55;76.69141;96177.55;;;;
2019/09/20 05:52:11;;;;;;;7.1;4.25;;;;;;;2.95;76.45898;96177.57;;;;
2019/09/20 05:53:12;;;;;;;7.1;4.25;;;;;;;2.95;76.45898;96177.57;;;;
2019/09/20 05:54:13;;;;;;;7.1;4.25;;;;;;;2.95;76.45898;96177.57;;;;
2019/09/20 05:55:14;;;;;;;7.1;4.25;;;;;;;2.95;76.45898;96177.57;;;;
2019/09/20 05:56:16;;;;;;;7.1;4.25;;;;;;;2.95;76.45898;96177.57;;;;